Wetterdaten: Woche 13.02.17 - 19.02.17 (KW7)
Datum Zeit Temp. I. Temp. A. Feuchte I. Feuchte A. Luftdruck Regen Wind Richtung Sonnenschein UV Solar Taupunkt Windchill Windben
13.02.2017 00:00 23,6 C -0,3 C 60 % 88 % 1032,6 hPa 0,0 l/m 3,9 km/h (1 Bft) O 0,00 h 0,0 UV-I 0 W/m -2,1 C -0,4 C 8,8 km/h (2 Bft)
13.02.2017 01:00 23,3 C -0,1 C 60 % 87 % 1032,6 hPa 0,0 l/m 5,3 km/h (1 Bft) O 0,00 h 0,0 UV-I 0 W/m -2,0 C -1,2 C 11,9 km/h (2 Bft)
13.02.2017 02:00 23,1 C -0,2 C 61 % 87 % 1032,7 hPa 0,0 l/m 6,7 km/h (2 Bft) O-NO 0,00 h 0,0 UV-I 0 W/m -2,1 C -1,5 C 14,5 km/h (3 Bft)
13.02.2017 03:00 22,9 C -0,1 C 61 % 87 % 1032,7 hPa 0,0 l/m 5,4 km/h (1 Bft) O-NO 0,00 h 0,0 UV-I 0 W/m -2,0 C -0,7 C 11,7 km/h (2 Bft)
13.02.2017 04:00 22,8 C -0,6 C 61 % 86 % 1033,1 hPa 0,0 l/m 6,0 km/h (2 Bft) O-NO 0,00 h 0,0 UV-I 0 W/m -2,7 C -1,5 C 11,2 km/h (2 Bft)
13.02.2017 05:00 22,8 C -1,5 C 61 % 87 % 1033,5 hPa 0,0 l/m 4,2 km/h (1 Bft) NO 0,00 h 0,0 UV-I 0 W/m -3,4 C -1,8 C 8,4 km/h (2 Bft)
13.02.2017 06:00 22,9 C -2,2 C 61 % 88 % 1033,5 hPa 0,0 l/m 3,4 km/h (1 Bft) N-NO 0,00 h 0,0 UV-I 0 W/m -3,9 C -2,3 C 7,1 km/h (2 Bft)
13.02.2017 07:00 22,8 C -2,4 C 61 % 88 % 1033,6 hPa 0,0 l/m 3,7 km/h (1 Bft) N-NO 0,00 h 0,0 UV-I 15 W/m -4,0 C -2,5 C 6,9 km/h (2 Bft)
13.02.2017 08:00 22,8 C -2,3 C 61 % 89 % 1033,8 hPa 0,0 l/m 2,6 km/h (1 Bft) N-NO 0,00 h 0,0 UV-I 37 W/m -3,9 C -2,3 C 6,8 km/h (2 Bft)
13.02.2017 13:00 23,4 C 5,4 C 60 % 54 % 1032,4 hPa 0,0 l/m 11,4 km/h (2 Bft) O-NO 1,83 h 1,5 UV-I 429 W/m -3,1 C 1,8 C 20,5 km/h (4 Bft)
13.02.2017 14:00 23,5 C 5,5 C 60 % 51 % 1032,0 hPa 0,0 l/m 12,1 km/h (2 Bft) O-NO 1,00 h 1,1 UV-I 339 W/m -3,9 C 1,5 C 21,3 km/h (4 Bft)
13.02.2017 15:00 23,7 C 5,2 C 59 % 52 % 1031,7 hPa 0,0 l/m 11,8 km/h (2 Bft) O-NO 0,98 h 0,7 UV-I 235 W/m -3,9 C 1,2 C 21,5 km/h (4 Bft)
13.02.2017 16:00 24,1 C 3,8 C 56 % 59 % 1031,4 hPa 0,0 l/m 11,4 km/h (2 Bft) O-NO 0,00 h 0,0 UV-I 72 W/m -3,5 C -0,0 C 19,8 km/h (3 Bft)
13.02.2017 17:00 23,8 C 2,4 C 56 % 65 % 1031,5 hPa 0,0 l/m 11,0 km/h (2 Bft) O-NO 0,00 h 0,0 UV-I 10 W/m -3,6 C -1,4 C 18,7 km/h (3 Bft)
13.02.2017 18:00 24,0 C 1,0 C 59 % 71 % 1031,6 hPa 0,0 l/m 10,8 km/h (2 Bft) O-NO 0,00 h 0,0 UV-I 0 W/m -3,7 C -2,9 C 17,4 km/h (3 Bft)
13.02.2017 19:00 24,0 C 0,8 C 59 % 71 % 1031,3 hPa 0,0 l/m 10,2 km/h (2 Bft) O-NO 0,00 h 0,0 UV-I 0 W/m -3,9 C -2,5 C 17,1 km/h (3 Bft)
13.02.2017 20:00 23,8 C 1,3 C 59 % 65 % 1030,9 hPa 0,0 l/m 7,8 km/h (2 Bft) O-NO 0,00 h 0,0 UV-I 0 W/m -4,5 C -0,3 C 14,9 km/h (3 Bft)
13.02.2017 21:00 23,8 C 1,2 C 59 % 65 % 1030,8 hPa 0,0 l/m 9,5 km/h (2 Bft) O-NO 0,00 h 0,0 UV-I 0 W/m -4,7 C -1,8 C 17,9 km/h (3 Bft)
13.02.2017 22:00 24,0 C 0,7 C 59 % 67 % 1031,2 hPa 0,0 l/m 6,3 km/h (2 Bft) O-NO 0,00 h 0,0 UV-I 0 W/m -4,6 C -0,6 C 13,1 km/h (3 Bft)
13.02.2017 23:00 23,9 C 0,2 C 59 % 70 % 1031,3 hPa 0,0 l/m 3,3 km/h (1 Bft) O-NO 0,00 h 0,0 UV-I 0 W/m -4,6 C 0,1 C 7,9 km/h (2 Bft)
14.02.2017 00:00 23,6 C -0,0 C 59 % 72 % 1031,4 hPa 0,0 l/m 4,2 km/h (1 Bft) O 0,00 h 0,0 UV-I 0 W/m -4,4 C -0,5 C 8,7 km/h (2 Bft)
14.02.2017 01:00 23,3 C 0,0 C 60 % 72 % 1031,1 hPa 0,0 l/m 8,7 km/h (2 Bft) O 0,00 h 0,0 UV-I 0 W/m -4,3 C -2,3 C 15,2 km/h (3 Bft)
14.02.2017 02:00 23,2 C 0,1 C 60 % 71 % 1030,9 hPa 0,0 l/m 10,5 km/h (2 Bft) O 0,00 h 0,0 UV-I 0 W/m -4,5 C -3,6 C 18,8 km/h (3 Bft)
14.02.2017 03:00 23,1 C 0,3 C 60 % 70 % 1030,7 hPa 0,0 l/m 9,1 km/h (2 Bft) O 0,00 h 0,0 UV-I 0 W/m -4,6 C -2,4 C 16,7 km/h (3 Bft)
14.02.2017 04:00 23,0 C 0,1 C 60 % 69 % 1030,8 hPa 0,0 l/m 4,4 km/h (1 Bft) O-NO 0,00 h 0,0 UV-I 0 W/m -4,8 C -0,5 C 10,3 km/h (2 Bft)
14.02.2017 05:00 22,9 C -0,4 C 60 % 71 % 1031,1 hPa 0,0 l/m 2,5 km/h (1 Bft) O-NO 0,00 h 0,0 UV-I 0 W/m -4,9 C -0,4 C 6,9 km/h (2 Bft)
14.02.2017 06:00 22,8 C -1,2 C 60 % 75 % 1031,5 hPa 0,0 l/m 5,1 km/h (1 Bft) O-NO 0,00 h 0,0 UV-I 0 W/m -5,1 C -1,7 C 10,5 km/h (2 Bft)
14.02.2017 07:00 22,8 C -1,3 C 60 % 76 % 1032,1 hPa 0,0 l/m 8,0 km/h (2 Bft) O-NO 0,00 h 0,0 UV-I 14 W/m -5,0 C -3,4 C 13,1 km/h (3 Bft)
14.02.2017 08:00 23,0 C -0,2 C 61 % 73 % 1032,4 hPa 0,0 l/m 5,7 km/h (1 Bft) O-NO 0,22 h 0,5 UV-I 96 W/m -4,3 C -1,3 C 10,8 km/h (2 Bft)
14.02.2017 09:00 23,2 C 2,2 C 61 % 66 % 1032,8 hPa 0,0 l/m 3,6 km/h (1 Bft) O-NO 1,00 h 0,8 UV-I 273 W/m -3,6 C 1,8 C 8,8 km/h (2 Bft)
14.02.2017 10:00 23,2 C 4,3 C 60 % 59 % 1033,2 hPa 0,0 l/m 2,2 km/h (1 Bft) O-NO 1,00 h 1,3 UV-I 383 W/m -3,1 C 4,1 C 5,4 km/h (1 Bft)
14.02.2017 11:00 23,0 C 5,8 C 55 % 54 % 1033,4 hPa 0,0 l/m 0,7 km/h (0 Bft) N 1,00 h 1,7 UV-I 449 W/m -2,8 C 5,8 C 1,4 km/h (1 Bft)
14.02.2017 12:00 23,6 C 6,8 C 57 % 51 % 1033,1 hPa 0,0 l/m 0,5 km/h (0 Bft) O-NO 1,00 h 1,9 UV-I 470 W/m -2,6 C 6,8 C 1,7 km/h (1 Bft)
14.02.2017 13:00 23,6 C 7,3 C 58 % 50 % 1033,3 hPa 0,0 l/m 3,7 km/h (1 Bft) O-NO 1,00 h 1,7 UV-I 439 W/m -2,5 C 7,0 C 8,7 km/h (2 Bft)
14.02.2017 14:00 23,7 C 7,1 C 58 % 49 % 1033,6 hPa 0,0 l/m 3,5 km/h (1 Bft) O 1,00 h 1,2 UV-I 346 W/m -3,0 C 6,8 C 9,2 km/h (2 Bft)
14.02.2017 15:00 23,7 C 6,8 C 58 % 48 % 1033,7 hPa 0,0 l/m 2,2 km/h (1 Bft) O 1,00 h 0,7 UV-I 238 W/m -3,4 C 6,7 C 6,5 km/h (2 Bft)
14.02.2017 16:00 23,7 C 6,1 C 58 % 51 % 1033,8 hPa 0,0 l/m 1,9 km/h (1 Bft) O-NO 0,05 h 0,5 UV-I 79 W/m -3,4 C 6,1 C 4,2 km/h (1 Bft)
14.02.2017 17:00 23,8 C 4,3 C 58 % 57 % 1034,1 hPa 0,0 l/m 1,4 km/h (1 Bft) O-NO 0,00 h 0,0 UV-I 11 W/m -3,5 C 4,3 C 3,6 km/h (1 Bft)
14.02.2017 18:00 24,2 C 3,0 C 58 % 61 % 1034,4 hPa 0,0 l/m 1,9 km/h (1 Bft) O-NO 0,00 h 0,0 UV-I 0 W/m -3,7 C 3,0 C 5,0 km/h (1 Bft)
14.02.2017 19:00 24,2 C 2,0 C 59 % 66 % 1034,8 hPa 0,0 l/m 3,4 km/h (1 Bft) O-NO 0,00 h 0,0 UV-I 0 W/m -3,6 C 2,0 C 7,2 km/h (2 Bft)
14.02.2017 20:00 24,3 C 1,4 C 59 % 69 % 1035,0 hPa 0,0 l/m 1,3 km/h (1 Bft) N-NO 0,00 h 0,0 UV-I 0 W/m -3,7 C 1,4 C 3,4 km/h (1 Bft)
14.02.2017 21:00 24,3 C 0,5 C 59 % 71 % 1035,2 hPa 0,0 l/m 1,6 km/h (1 Bft) O-NO 0,00 h 0,0 UV-I 0 W/m -4,2 C 0,5 C 4,1 km/h (1 Bft)
14.02.2017 22:00 24,2 C -1,1 C 59 % 76 % 1035,4 hPa 0,0 l/m 0,1 km/h (0 Bft) O-NO 0,00 h 0,0 UV-I 0 W/m -4,9 C -1,1 C 0,3 km/h (0 Bft)
14.02.2017 23:00 23,8 C -2,3 C 59 % 80 % 1035,5 hPa 0,0 l/m 0,1 km/h (0 Bft) N-NW 0,00 h 0,0 UV-I 0 W/m -5,2 C -2,3 C 0,5 km/h (0 Bft)
15.02.2017 00:00 23,5 C -2,7 C 59 % 83 % 1035,8 hPa 0,0 l/m 0,1 km/h (0 Bft) N-NW 0,00 h 0,0 UV-I 0 W/m -5,2 C -2,7 C 0,4 km/h (0 Bft)
15.02.2017 01:00 23,3 C -3,4 C 59 % 84 % 1035,8 hPa 0,0 l/m 0,0 km/h (0 Bft) N 0,00 h 0,0 UV-I 0 W/m -5,8 C -3,4 C 0,1 km/h (0 Bft)
15.02.2017 02:00 23,2 C -4,2 C 59 % 84 % 1035,7 hPa 0,0 l/m 0,2 km/h (0 Bft) N-NO 0,00 h 0,0 UV-I 0 W/m -6,4 C -4,2 C 0,6 km/h (0 Bft)
15.02.2017 03:00 23,1 C -4,9 C 59 % 85 % 1035,7 hPa 0,0 l/m 0,2 km/h (0 Bft) N-NO 0,00 h 0,0 UV-I 0 W/m -6,9 C -4,9 C 0,5 km/h (0 Bft)
15.02.2017 04:00 23,0 C -5,0 C 59 % 88 % 1035,9 hPa 0,0 l/m 1,4 km/h (1 Bft) N-NW 0,00 h 0,0 UV-I 0 W/m -6,6 C -5,0 C 2,7 km/h (1 Bft)
15.02.2017 05:00 22,9 C -5,3 C 59 % 88 % 1036,1 hPa 0,0 l/m 0,0 km/h (0 Bft) N 0,00 h 0,0 UV-I 0 W/m -6,9 C -5,3 C 0,0 km/h (0 Bft)
15.02.2017 06:00 22,8 C -5,8 C 59 % 88 % 1036,1 hPa 0,0 l/m 0,0 km/h (0 Bft) N 0,00 h 0,0 UV-I 0 W/m -7,4 C -5,8 C 0,0 km/h (0 Bft)
15.02.2017 07:00 22,8 C -6,1 C 59 % 89 % 1036,6 hPa 0,0 l/m 0,1 km/h (0 Bft) N-NW 0,00 h 0,0 UV-I 14 W/m -7,5 C -6,1 C 0,3 km/h (0 Bft)
15.02.2017 08:00 22,9 C -4,5 C 60 % 91 % 1037,0 hPa 0,0 l/m 0,0 km/h (0 Bft) N 0,25 h 0,5 UV-I 98 W/m -5,8 C -4,5 C 0,0 km/h (0 Bft)
15.02.2017 09:00 23,2 C -0,3 C 61 % 81 % 1037,2 hPa 0,0 l/m 0,0 km/h (0 Bft) N 1,00 h 0,8 UV-I 254 W/m -3,2 C -0,3 C 0,0 km/h (0 Bft)
15.02.2017 10:00 23,4 C 3,2 C 60 % 69 % 1037,3 hPa 0,0 l/m 0,0 km/h (0 Bft) N 1,00 h 1,3 UV-I 374 W/m -1,9 C 3,2 C 0,0 km/h (0 Bft)
15.02.2017 11:00 23,4 C 5,7 C 56 % 61 % 1037,2 hPa 0,0 l/m 0,0 km/h (0 Bft) N 1,00 h 1,6 UV-I 438 W/m -1,2 C 5,7 C 0,0 km/h (0 Bft)
15.02.2017 12:00 23,3 C 7,4 C 54 % 55 % 1036,6 hPa 0,0 l/m 0,0 km/h (0 Bft) N 1,00 h 1,8 UV-I 458 W/m -1,1 C 7,4 C 0,0 km/h (0 Bft)
15.02.2017 13:00 23,5 C 8,8 C 53 % 47 % 1035,9 hPa 0,0 l/m 0,1 km/h (0 Bft) W 1,00 h 1,6 UV-I 434 W/m -1,9 C 8,8 C 0,6 km/h (0 Bft)
15.02.2017 14:00 22,1 C 9,8 C 36 % 41 % 1035,6 hPa 0,0 l/m 0,0 km/h (0 Bft) W-NW 1,00 h 1,2 UV-I 348 W/m -2,8 C 9,8 C 0,3 km/h (0 Bft)
15.02.2017 15:00 21,0 C 9,8 C 31 % 39 % 1035,3 hPa 0,0 l/m 0,1 km/h (0 Bft) S 1,00 h 0,7 UV-I 238 W/m -3,4 C 9,8 C 0,3 km/h (0 Bft)
15.02.2017 16:00 20,7 C 8,7 C 31 % 43 % 1035,0 hPa 0,0 l/m 0,0 km/h (0 Bft) W-SW 0,05 h 0,5 UV-I 80 W/m -3,2 C 8,7 C 0,3 km/h (0 Bft)
15.02.2017 17:00 21,9 C 6,8 C 38 % 51 % 1035,1 hPa 0,0 l/m 0,0 km/h (0 Bft) N 0,00 h 0,0 UV-I 12 W/m -2,6 C 6,8 C 0,0 km/h (0 Bft)
15.02.2017 18:00 22,8 C 4,2 C 42 % 62 % 1035,4 hPa 0,0 l/m 0,0 km/h (0 Bft) N 0,00 h 0,0 UV-I 0 W/m -2,4 C 4,2 C 0,0 km/h (0 Bft)
15.02.2017 19:00 23,2 C 1,5 C 45 % 71 % 1035,7 hPa 0,0 l/m 0,0 km/h (0 Bft) N 0,00 h 0,0 UV-I 0 W/m -3,2 C 1,5 C 0,0 km/h (0 Bft)
15.02.2017 20:00 23,2 C -0,2 C 47 % 77 % 1035,7 hPa 0,0 l/m 0,0 km/h (0 Bft) N 0,00 h 0,0 UV-I 0 W/m -3,7 C -0,2 C 0,0 km/h (0 Bft)
15.02.2017 21:00 23,4 C -1,2 C 48 % 81 % 1035,7 hPa 0,0 l/m 0,0 km/h (0 Bft) N 0,00 h 0,0 UV-I 0 W/m -4,0 C -1,2 C 0,0 km/h (0 Bft)
15.02.2017 22:00 23,5 C -2,0 C 48 % 84 % 1035,6 hPa 0,0 l/m 0,0 km/h (0 Bft) N 0,00 h 0,0 UV-I 0 W/m -4,3 C -2,0 C 0,0 km/h (0 Bft)
15.02.2017 23:00 23,1 C -2,6 C 49 % 86 % 1035,7 hPa 0,0 l/m 0,0 km/h (0 Bft) N 0,00 h 0,0 UV-I 0 W/m -4,7 C -2,6 C 0,0 km/h (0 Bft)
16.02.2017 00:00 22,8 C -3,2 C 50 % 87 % 1035,7 hPa 0,0 l/m 0,0 km/h (0 Bft) N 0,00 h 0,0 UV-I 0 W/m -5,1 C -3,2 C 0,0 km/h (0 Bft)
16.02.2017 01:00 22,7 C -3,8 C 50 % 88 % 1035,4 hPa 0,0 l/m 0,0 km/h (0 Bft) N 0,00 h 0,0 UV-I 0 W/m -5,5 C -3,8 C 0,0 km/h (0 Bft)
16.02.2017 02:00 22,6 C -4,2 C 50 % 89 % 1035,4 hPa 0,0 l/m 0,0 km/h (0 Bft) N 0,00 h 0,0 UV-I 0 W/m -5,8 C -4,2 C 0,0 km/h (0 Bft)
16.02.2017 03:00 22,4 C -4,6 C 51 % 89 % 1035,0 hPa 0,0 l/m 0,0 km/h (0 Bft) N 0,00 h 0,0 UV-I 0 W/m -6,0 C -4,6 C 0,0 km/h (0 Bft)
16.02.2017 04:00 22,4 C -4,9 C 51 % 90 % 1035,1 hPa 0,0 l/m 0,0 km/h (0 Bft) N 0,00 h 0,0 UV-I 0 W/m -6,3 C -4,9 C 0,0 km/h (0 Bft)
16.02.2017 05:00 22,3 C -5,1 C 51 % 91 % 1034,9 hPa 0,0 l/m 0,0 km/h (0 Bft) N 0,00 h 0,0 UV-I 0 W/m -6,4 C -5,1 C 0,0 km/h (0 Bft)
16.02.2017 06:00 22,3 C -5,2 C 52 % 91 % 1034,8 hPa 0,0 l/m 0,0 km/h (0 Bft) N 0,00 h 0,0 UV-I 0 W/m -6,4 C -5,2 C 0,0 km/h (0 Bft)
16.02.2017 07:00 22,4 C -5,2 C 52 % 91 % 1034,9 hPa 0,0 l/m 0,0 km/h (0 Bft) N 0,00 h 0,0 UV-I 16 W/m -6,5 C -5,2 C 0,0 km/h (0 Bft)
16.02.2017 08:00 22,7 C -4,0 C 53 % 93 % 1034,8 hPa 0,0 l/m 0,0 km/h (0 Bft) N 0,03 h 0,5 UV-I 88 W/m -5,0 C -4,0 C 0,0 km/h (0 Bft)
16.02.2017 09:00 22,7 C 0,1 C 54 % 86 % 1034,6 hPa 0,0 l/m 0,0 km/h (0 Bft) N 1,00 h 0,7 UV-I 230 W/m -1,9 C 0,1 C 0,1 km/h (0 Bft)
16.02.2017 10:00 23,0 C 3,3 C 54 % 85 % 1034,2 hPa 0,0 l/m 0,0 km/h (0 Bft) N 1,00 h 1,0 UV-I 304 W/m 1,0 C 3,3 C 0,0 km/h (0 Bft)
16.02.2017 11:00 22,9 C 6,5 C 52 % 77 % 1033,7 hPa 0,0 l/m 1,6 km/h (1 Bft) S 1,00 h 1,3 UV-I 372 W/m 2,8 C 6,5 C 3,5 km/h (1 Bft)
16.02.2017 12:00 22,8 C 8,0 C 50 % 67 % 1032,8 hPa 0,0 l/m 2,8 km/h (1 Bft) S 1,00 h 1,7 UV-I 436 W/m 2,2 C 8,0 C 6,5 km/h (2 Bft)
16.02.2017 13:00 22,8 C 9,7 C 47 % 61 % 1032,0 hPa 0,0 l/m 1,0 km/h (0 Bft) SW 1,00 h 1,5 UV-I 413 W/m 2,6 C 9,7 C 3,6 km/h (1 Bft)
16.02.2017 14:00 22,1 C 10,3 C 41 % 59 % 1031,2 hPa 0,0 l/m 2,2 km/h (1 Bft) S 0,80 h 1,1 UV-I 266 W/m 2,8 C 10,3 C 5,1 km/h (1 Bft)
16.02.2017 15:00 22,4 C 10,0 C 44 % 61 % 1030,6 hPa 0,0 l/m 0,9 km/h (0 Bft) S 0,50 h 0,6 UV-I 160 W/m 2,9 C 10,0 C 2,6 km/h (1 Bft)
16.02.2017 16:00 22,9 C 10,1 C 47 % 61 % 1030,0 hPa 0,0 l/m 0,7 km/h (0 Bft) S-SO 0,25 h 0,5 UV-I 102 W/m 3,0 C 10,1 C 2,0 km/h (1 Bft)
16.02.2017 17:00 22,9 C 8,8 C 48 % 65 % 1029,8 hPa 0,0 l/m 0,0 km/h (0 Bft) N 0,00 h 0,0 UV-I 17 W/m 2,6 C 8,8 C 0,0 km/h (0 Bft)
16.02.2017 18:00 23,1 C 7,0 C 50 % 68 % 1029,8 hPa 0,0 l/m 0,0 km/h (0 Bft) N 0,00 h 0,0 UV-I 0 W/m 1,6 C 7,0 C 0,0 km/h (0 Bft)
16.02.2017 19:00 23,3 C 4,0 C 52 % 77 % 1029,4 hPa 0,0 l/m 0,0 km/h (0 Bft) N 0,00 h 0,0 UV-I 0 W/m 0,2 C 4,0 C 0,0 km/h (0 Bft)
16.02.2017 20:00 23,5 C 2,4 C 53 % 83 % 1029,0 hPa 0,0 l/m 0,0 km/h (0 Bft) N 0,00 h 0,0 UV-I 0 W/m -0,3 C 2,4 C 0,0 km/h (0 Bft)
16.02.2017 21:00 23,8 C 1,9 C 53 % 85 % 1028,7 hPa 0,0 l/m 0,0 km/h (0 Bft) N 0,00 h 0,0 UV-I 0 W/m -0,4 C 1,9 C 0,0 km/h (0 Bft)
16.02.2017 22:00 23,9 C 1,2 C 53 % 86 % 1028,1 hPa 0,0 l/m 0,0 km/h (0 Bft) N 0,00 h 0,0 UV-I 0 W/m -0,9 C 1,2 C 0,0 km/h (0 Bft)
16.02.2017 23:00 23,8 C 0,7 C 53 % 88 % 1027,5 hPa 0,0 l/m 0,0 km/h (0 Bft) N 0,00 h 0,0 UV-I 0 W/m -1,1 C 0,7 C 0,0 km/h (0 Bft)
17.02.2017 00:00 23,5 C 0,4 C 53 % 89 % 1027,2 hPa 0,0 l/m 0,0 km/h (0 Bft) N 0,00 h 0,0 UV-I 0 W/m -1,2 C 0,4 C 0,0 km/h (0 Bft)
17.02.2017 01:00 23,2 C 1,3 C 54 % 92 % 1026,5 hPa 1,2 l/m 0,0 km/h (0 Bft) N 0,00 h 0,0 UV-I 0 W/m 0,1 C 1,3 C 0,0 km/h (0 Bft)
17.02.2017 02:00 23,0 C 1,8 C 54 % 94 % 1025,9 hPa 0,0 l/m 0,0 km/h (0 Bft) N 0,00 h 0,0 UV-I 0 W/m 0,9 C 1,8 C 0,0 km/h (0 Bft)
17.02.2017 03:00 22,8 C 1,7 C 54 % 94 % 1025,4 hPa 0,6 l/m 0,0 km/h (0 Bft) N 0,00 h 0,0 UV-I 0 W/m 0,8 C 1,7 C 0,0 km/h (0 Bft)
17.02.2017 04:00 22,8 C 1,8 C 54 % 94 % 1024,8 hPa 0,2 l/m 0,0 km/h (0 Bft) N 0,00 h 0,0 UV-I 0 W/m 1,0 C 1,8 C 0,0 km/h (0 Bft)
17.02.2017 05:00 22,7 C 1,9 C 54 % 95 % 1024,7 hPa 0,2 l/m 0,0 km/h (0 Bft) N 0,00 h 0,0 UV-I 0 W/m 1,2 C 1,9 C 0,0 km/h (0 Bft)
17.02.2017 06:00 22,6 C 1,9 C 54 % 95 % 1024,2 hPa 0,2 l/m 0,0 km/h (0 Bft) N 0,00 h 0,0 UV-I 0 W/m 1,2 C 1,9 C 0,0 km/h (0 Bft)
17.02.2017 07:00 22,8 C 2,2 C 55 % 95 % 1024,9 hPa 1,0 l/m 1,5 km/h (1 Bft) W-NW 0,00 h 0,0 UV-I 8 W/m 1,5 C 2,2 C 3,7 km/h (1 Bft)
17.02.2017 08:00 23,2 C 2,2 C 56 % 96 % 1024,7 hPa 0,0 l/m 0,0 km/h (0 Bft) N 0,00 h 0,5 UV-I 27 W/m 1,6 C 2,2 C 0,0 km/h (0 Bft)
17.02.2017 09:00 23,7 C 3,4 C 56 % 96 % 1024,5 hPa 0,0 l/m 0,2 km/h (0 Bft) S 0,93 h 0,8 UV-I 252 W/m 2,8 C 3,4 C 0,5 km/h (0 Bft)
17.02.2017 10:00 23,7 C 4,6 C 54 % 92 % 1024,3 hPa 0,0 l/m 2,2 km/h (1 Bft) S 1,00 h 1,2 UV-I 317 W/m 3,3 C 4,5 C 4,6 km/h (1 Bft)
17.02.2017 11:00 23,2 C 4,5 C 48 % 92 % 1024,3 hPa 0,0 l/m 5,5 km/h (1 Bft) S-SO 0,75 h 1,3 UV-I 329 W/m 3,2 C 4,0 C 9,1 km/h (2 Bft)
17.02.2017 12:00 23,4 C 5,0 C 49 % 88 % 1024,0 hPa 0,0 l/m 3,7 km/h (1 Bft) SW 0,80 h 1,3 UV-I 253 W/m 3,2 C 4,9 C 8,5 km/h (2 Bft)
17.02.2017 13:00 23,4 C 5,4 C 49 % 84 % 1023,7 hPa 0,0 l/m 3,3 km/h (1 Bft) SW 0,60 h 1,0 UV-I 183 W/m 3,0 C 5,4 C 7,6 km/h (2 Bft)
17.02.2017 14:00 23,7 C 5,1 C 50 % 85 % 1023,4 hPa 0,0 l/m 2,5 km/h (1 Bft) SW 0,00 h 0,5 UV-I 53 W/m 2,7 C 5,1 C 6,8 km/h (2 Bft)
17.02.2017 15:00 23,8 C 5,1 C 50 % 85 % 1023,5 hPa 0,0 l/m 1,9 km/h (1 Bft) W-SW 0,00 h 0,5 UV-I 49 W/m 2,8 C 5,0 C 5,5 km/h (1 Bft)
17.02.2017 16:00 23,6 C 4,8 C 50 % 88 % 1023,5 hPa 0,0 l/m 1,0 km/h (0 Bft) W-SW 0,00 h 0,0 UV-I 19 W/m 3,0 C 4,8 C 2,8 km/h (1 Bft)
17.02.2017 17:00 23,5 C 4,1 C 50 % 90 % 1023,8 hPa 0,0 l/m 3,5 km/h (1 Bft) W-SW 0,00 h 0,0 UV-I 7 W/m 2,5 C 4,0 C 8,0 km/h (2 Bft)
17.02.2017 18:00 23,6 C 3,4 C 52 % 91 % 1024,4 hPa 0,0 l/m 0,6 km/h (0 Bft) W-SW 0,00 h 0,0 UV-I 0 W/m 2,1 C 3,4 C 2,0 km/h (1 Bft)
17.02.2017 19:00 23,8 C 3,2 C 53 % 92 % 1024,8 hPa 0,0 l/m 0,0 km/h (0 Bft) N 0,00 h 0,0 UV-I 0 W/m 2,0 C 3,2 C 0,0 km/h (0 Bft)
17.02.2017 20:00 23,9 C 2,9 C 55 % 93 % 1025,0 hPa 0,0 l/m 0,0 km/h (0 Bft) N 0,00 h 0,0 UV-I 0 W/m 1,9 C 2,9 C 0,0 km/h (0 Bft)
17.02.2017 21:00 24,2 C 2,8 C 55 % 94 % 1025,3 hPa 0,0 l/m 0,0 km/h (0 Bft) N 0,00 h 0,0 UV-I 0 W/m 1,9 C 2,8 C 0,0 km/h (0 Bft)
17.02.2017 22:00 24,4 C 2,7 C 55 % 94 % 1025,4 hPa 0,0 l/m 0,0 km/h (0 Bft) N 0,00 h 0,0 UV-I 0 W/m 1,9 C 2,7 C 0,0 km/h (0 Bft)
17.02.2017 23:00 23,9 C 2,7 C 55 % 94 % 1025,5 hPa 0,0 l/m 0,0 km/h (0 Bft) N 0,00 h 0,0 UV-I 0 W/m 1,8 C 2,7 C 0,0 km/h (0 Bft)
18.02.2017 00:00 23,6 C 2,6 C 55 % 95 % 1025,4 hPa 0,0 l/m 0,0 km/h (0 Bft) N 0,00 h 0,0 UV-I 0 W/m 1,8 C 2,6 C 0,1 km/h (0 Bft)
18.02.2017 01:00 23,4 C 2,5 C 56 % 95 % 1025,4 hPa 0,0 l/m 0,0 km/h (0 Bft) N 0,00 h 0,0 UV-I 0 W/m 1,8 C 2,5 C 0,0 km/h (0 Bft)
18.02.2017 02:00 23,3 C 2,5 C 56 % 95 % 1025,5 hPa 0,0 l/m 0,0 km/h (0 Bft) N 0,00 h 0,0 UV-I 0 W/m 1,8 C 2,5 C 0,0 km/h (0 Bft)
18.02.2017 03:00 23,2 C 2,4 C 56 % 95 % 1025,3 hPa 0,0 l/m 0,2 km/h (0 Bft) W 0,00 h 0,0 UV-I 0 W/m 1,7 C 2,4 C 0,8 km/h (0 Bft)
18.02.2017 04:00 23,1 C 2,4 C 56 % 96 % 1025,3 hPa 0,0 l/m 0,1 km/h (0 Bft) W-NW 0,00 h 0,0 UV-I 0 W/m 1,8 C 2,4 C 0,3 km/h (0 Bft)
18.02.2017 05:00 23,0 C 2,4 C 57 % 95 % 1025,4 hPa 0,0 l/m 0,0 km/h (0 Bft) NW 0,00 h 0,0 UV-I 0 W/m 1,7 C 2,4 C 0,3 km/h (0 Bft)
18.02.2017 06:00 22,9 C 2,2 C 57 % 96 % 1025,8 hPa 0,0 l/m 0,0 km/h (0 Bft) N 0,00 h 0,0 UV-I 0 W/m 1,5 C 2,2 C 0,2 km/h (0 Bft)
18.02.2017 07:00 23,1 C 2,1 C 57 % 96 % 1026,4 hPa 0,0 l/m 0,0 km/h (0 Bft) N 0,00 h 0,0 UV-I 8 W/m 1,5 C 2,1 C 0,0 km/h (0 Bft)
18.02.2017 08:00 23,6 C 2,3 C 57 % 96 % 1026,6 hPa 0,0 l/m 0,0 km/h (0 Bft) N 0,00 h 0,0 UV-I 37 W/m 1,7 C 2,3 C 0,0 km/h (0 Bft)
18.02.2017 09:00 23,9 C 3,0 C 56 % 95 % 1026,8 hPa 0,0 l/m 0,1 km/h (0 Bft) NW 0,00 h 0,5 UV-I 79 W/m 2,3 C 3,0 C 0,3 km/h (0 Bft)
18.02.2017 10:00 23,9 C 3,6 C 57 % 91 % 1027,1 hPa 0,2 l/m 0,6 km/h (0 Bft) W-SW 0,00 h 0,8 UV-I 121 W/m 2,3 C 3,6 C 1,8 km/h (1 Bft)
18.02.2017 11:00 23,9 C 4,1 C 57 % 88 % 1027,2 hPa 0,0 l/m 0,6 km/h (0 Bft) W-SW 0,05 h 0,9 UV-I 126 W/m 2,4 C 4,1 C 1,7 km/h (1 Bft)
18.02.2017 12:00 23,8 C 4,1 C 58 % 88 % 1026,9 hPa 0,0 l/m 2,4 km/h (1 Bft) W-SW 0,00 h 0,8 UV-I 107 W/m 2,3 C 4,0 C 4,9 km/h (1 Bft)
18.02.2017 13:00 24,2 C 3,9 C 58 % 91 % 1026,6 hPa 0,2 l/m 1,0 km/h (0 Bft) W-SW 0,13 h 0,8 UV-I 111 W/m 2,7 C 3,9 C 2,6 km/h (1 Bft)
18.02.2017 14:00 24,3 C 3,9 C 58 % 93 % 1026,3 hPa 0,0 l/m 0,1 km/h (0 Bft) N 0,00 h 0,7 UV-I 92 W/m 2,9 C 3,9 C 0,7 km/h (0 Bft)
18.02.2017 15:00 24,0 C 4,0 C 57 % 92 % 1026,3 hPa 0,0 l/m 0,0 km/h (0 Bft) N 0,00 h 0,0 UV-I 51 W/m 2,8 C 4,0 C 0,0 km/h (0 Bft)
18.02.2017 16:00 23,7 C 4,1 C 57 % 90 % 1026,3 hPa 0,0 l/m 0,0 km/h (0 Bft) N 0,00 h 0,0 UV-I 17 W/m 2,6 C 4,1 C 0,0 km/h (0 Bft)
18.02.2017 17:00 23,8 C 3,6 C 57 % 91 % 1026,5 hPa 0,0 l/m 0,0 km/h (0 Bft) N 0,00 h 0,0 UV-I 7 W/m 2,3 C 3,6 C 0,0 km/h (0 Bft)
18.02.2017 18:00 24,1 C 3,1 C 58 % 92 % 1026,8 hPa 0,0 l/m 0,0 km/h (0 Bft) N 0,00 h 0,0 UV-I 0 W/m 2,0 C 3,1 C 0,0 km/h (0 Bft)
18.02.2017 19:00 24,1 C 2,8 C 58 % 93 % 1027,0 hPa 0,0 l/m 0,0 km/h (0 Bft) N 0,00 h 0,0 UV-I 0 W/m 1,7 C 2,8 C 0,0 km/h (0 Bft)
18.02.2017 20:00 24,3 C 2,4 C 59 % 93 % 1027,0 hPa 0,0 l/m 0,0 km/h (0 Bft) N 0,00 h 0,0 UV-I 0 W/m 1,3 C 2,4 C 0,1 km/h (0 Bft)
18.02.2017 21:00 24,4 C 1,7 C 58 % 93 % 1027,1 hPa 0,0 l/m 0,0 km/h (0 Bft) N 0,00 h 0,0 UV-I 0 W/m 0,7 C 1,7 C 0,0 km/h (0 Bft)
18.02.2017 22:00 24,4 C 1,0 C 58 % 93 % 1027,0 hPa 0,0 l/m 0,0 km/h (0 Bft) W 0,00 h 0,0 UV-I 0 W/m -0,0 C 1,0 C 0,1 km/h (0 Bft)
18.02.2017 23:00 24,3 C 0,1 C 59 % 93 % 1027,0 hPa 0,0 l/m 0,0 km/h (0 Bft) N 0,00 h 0,0 UV-I 0 W/m -0,9 C 0,1 C 0,0 km/h (0 Bft)
19.02.2017 00:00 23,9 C -0,2 C 59 % 93 % 1026,9 hPa 0,0 l/m 0,0 km/h (0 Bft) N 0,00 h 0,0 UV-I 0 W/m -1,2 C -0,2 C 0,0 km/h (0 Bft)
19.02.2017 01:00 23,7 C -0,3 C 59 % 94 % 1026,5 hPa 0,0 l/m 0,0 km/h (0 Bft) N 0,00 h 0,0 UV-I 0 W/m -1,1 C -0,3 C 0,0 km/h (0 Bft)
19.02.2017 02:00 23,5 C -0,5 C 59 % 94 % 1026,3 hPa 0,0 l/m 0,0 km/h (0 Bft) N 0,00 h 0,0 UV-I 0 W/m -1,3 C -0,5 C 0,0 km/h (0 Bft)
19.02.2017 03:00 23,4 C -0,8 C 59 % 94 % 1025,8 hPa 0,0 l/m 0,0 km/h (0 Bft) N 0,00 h 0,0 UV-I 0 W/m -1,6 C -0,8 C 0,0 km/h (0 Bft)
19.02.2017 04:00 23,3 C -1,1 C 59 % 95 % 1025,4 hPa 0,0 l/m 0,0 km/h (0 Bft) N 0,00 h 0,0 UV-I 0 W/m -1,8 C -1,1 C 0,0 km/h (0 Bft)
19.02.2017 05:00 23,2 C -1,8 C 59 % 94 % 1025,3 hPa 0,0 l/m 0,0 km/h (0 Bft) N 0,00 h 0,0 UV-I 0 W/m -2,6 C -1,8 C 0,0 km/h (0 Bft)
19.02.2017 06:00 23,1 C -2,6 C 59 % 94 % 1025,0 hPa 0,0 l/m 0,0 km/h (0 Bft) N 0,00 h 0,0 UV-I 0 W/m -3,4 C -2,6 C 0,0 km/h (0 Bft)
19.02.2017 07:00 23,1 C -2,7 C 59 % 95 % 1025,1 hPa 0,0 l/m 0,0 km/h (0 Bft) N 0,00 h 0,0 UV-I 18 W/m -3,5 C -2,7 C 0,0 km/h (0 Bft)
19.02.2017 08:00 23,1 C -2,2 C 59 % 96 % 1025,3 hPa 0,0 l/m 0,0 km/h (0 Bft) N 0,00 h 0,0 UV-I 57 W/m -2,8 C -2,2 C 0,1 km/h (0 Bft)
19.02.2017 09:00 23,2 C -0,8 C 59 % 96 % 1025,3 hPa 0,0 l/m 0,0 km/h (0 Bft) N 0,15 h 0,7 UV-I 111 W/m -1,4 C -0,8 C 0,0 km/h (0 Bft)
19.02.2017 10:00 23,3 C 1,7 C 58 % 94 % 1024,9 hPa 0,0 l/m 2,2 km/h (1 Bft) S 1,00 h 1,2 UV-I 305 W/m 0,9 C 1,7 C 4,4 km/h (1 Bft)
19.02.2017 11:00 22,8 C 3,5 C 52 % 85 % 1024,5 hPa 0,0 l/m 4,9 km/h (1 Bft) S 1,00 h 1,6 UV-I 324 W/m 1,2 C 3,3 C 9,2 km/h (2 Bft)
19.02.2017 12:00 22,8 C 5,3 C 53 % 77 % 1023,8 hPa 0,0 l/m 4,2 km/h (1 Bft) SW 0,95 h 1,8 UV-I 411 W/m 1,5 C 5,1 C 8,1 km/h (2 Bft)
19.02.2017 13:00 22,8 C 5,3 C 53 % 75 % 1023,1 hPa 0,0 l/m 3,1 km/h (1 Bft) SW 0,92 h 1,0 UV-I 196 W/m 1,2 C 5,2 C 6,7 km/h (2 Bft)
19.02.2017 14:00 22,7 C 5,3 C 53 % 74 % 1022,5 hPa 0,0 l/m 1,9 km/h (1 Bft) SW 0,10 h 0,7 UV-I 132 W/m 1,1 C 5,3 C 5,8 km/h (2 Bft)
19.02.2017 15:00 23,2 C 5,0 C 51 % 78 % 1022,0 hPa 0,0 l/m 3,1 km/h (1 Bft) S 0,10 h 0,6 UV-I 114 W/m 1,6 C 5,0 C 7,6 km/h (2 Bft)
19.02.2017 16:00 23,5 C 4,2 C 50 % 84 % 1021,6 hPa 0,0 l/m 2,2 km/h (1 Bft) S 0,00 h 0,0 UV-I 58 W/m 1,7 C 4,2 C 5,3 km/h (1 Bft)
19.02.2017 17:00 23,9 C 3,4 C 52 % 86 % 1021,5 hPa 0,0 l/m 0,7 km/h (0 Bft) S-SW 0,00 h 0,0 UV-I 9 W/m 1,3 C 3,4 C 3,3 km/h (1 Bft)
19.02.2017 18:00 24,0 C 2,4 C 53 % 90 % 1021,9 hPa 0,0 l/m 0,5 km/h (0 Bft) W-SW 0,00 h 0,0 UV-I 0 W/m 0,9 C 2,4 C 1,8 km/h (1 Bft)
19.02.2017 19:00 23,8 C 1,9 C 54 % 92 % 1021,8 hPa 0,0 l/m 0,4 km/h (0 Bft) S-SW 0,00 h 0,0 UV-I 0 W/m 0,7 C 1,9 C 2,1 km/h (1 Bft)
19.02.2017 20:00 23,9 C 1,6 C 55 % 93 % 1021,9 hPa 0,0 l/m 0,1 km/h (0 Bft) S 0,00 h 0,0 UV-I 0 W/m 0,6 C 1,6 C 0,9 km/h (0 Bft)
19.02.2017 21:00 24,0 C 1,7 C 55 % 94 % 1022,2 hPa 0,4 l/m 0,1 km/h (0 Bft) S-SW 0,00 h 0,0 UV-I 0 W/m 0,9 C 1,7 C 1,0 km/h (0 Bft)
19.02.2017 22:00 24,1 C 1,4 C 55 % 94 % 1022,4 hPa 0,4 l/m 0,5 km/h (0 Bft) S 0,00 h 0,0 UV-I 0 W/m 0,6 C 1,4 C 2,0 km/h (1 Bft)
19.02.2017 23:00 24,0 C 1,5 C 56 % 95 % 1022,3 hPa 0,0 l/m 0,6 km/h (0 Bft) S-SW 0,00 h 0,0 UV-I 0 W/m 0,8 C 1,5 C 2,9 km/h (1 Bft)
Min-Datum _ 15.02.17 15.02.17 15.02.17 15.02.17 19.02.17 - 13.02.17 - - - - 15.02.17 14.02.17 13.02.17
_ Min-Zeit 16:35 07:06 16:10 15:11 16:36 - 00:24 - - - - 07:06 02:30 00:45
Minimum _ 20,6 C -6,1 C 30 % 36 % 1021,4 hPa - 0,0 km/h (0 Bft) - - - - -7,6 C -8,4 C 0,0 km/h (0 Bft)
Max-Datum _ 18.02.17 16.02.17 13.02.17 17.02.17 15.02.17 17.02.17 13.02.17 - 13.02.17 17.02.17 19.02.17 17.02.17 16.02.17 13.02.17
_ Max-Zeit 22:28 14:29 01:47 09:14 10:31 01:03 13:36 - 13:09 12:42 12:50 10:08 14:29 15:15
Maximum _ 24,5 C 11,1 C 61 % 97 % 1037,5 hPa 1,2 l/m 19,3 km/h
O-NO (3 Bft)
- 1,00 h 2,1 UV-I 693 W/m 4,3 C 11,1 C 33,8 km/h
O-NO (5 Bft)
Durchschnitt _ 23,3 C 1,9 C 55 % 81 % 1029,8 hPa #4,6 l/m 1,8 km/h (1 Bft) O-NO #33:27 h 1,0 UV-I 179 W/m -1,3 C 1,5 C 3,8 km/h (1 Bft)